createdAt,value
2023-05-13T00:00:23.728Z,30.00
2023-05-13T00:03:10.010Z,23.00
2023-05-13T00:05:38.554Z,27.00
2023-05-13T00:08:09.537Z,24.50
2023-05-13T00:10:37.436Z,27.00
2023-05-13T00:13:05.397Z,26.50
2023-05-13T00:15:33.236Z,25.67
2023-05-13T00:18:01.223Z,25.00
2023-05-13T00:22:57.043Z,22.00
2023-05-13T00:25:24.822Z,23.00
2023-05-13T00:27:52.738Z,27.00
2023-05-13T00:30:21.478Z,27.67
2023-05-13T00:32:49.551Z,25.50
2023-05-13T00:35:18.054Z,27.00
2023-05-13T00:37:46.300Z,26.00
2023-05-13T00:40:20.939Z,28.33
2023-05-13T00:42:49.526Z,30.00
2023-05-13T00:45:17.684Z,26.50
2023-05-13T00:47:45.569Z,27.00
2023-05-13T00:50:14.167Z,25.00
2023-05-13T00:52:42.369Z,28.00
2023-05-13T00:55:10.544Z,31.00
2023-05-13T00:57:40.228Z,27.00
2023-05-13T01:00:08.565Z,26.00
2023-05-13T01:02:50.009Z,27.50
2023-05-13T01:05:31.051Z,25.50
2023-05-13T01:08:37.599Z,27.00
2023-05-13T01:11:09.781Z,30.00
2023-05-13T01:13:43.204Z,27.50
2023-05-13T01:16:43.600Z,26.00
2023-05-13T01:19:26.711Z,33.00
2023-05-13T01:21:55.107Z,26.00
2023-05-13T01:24:23.552Z,26.00
2023-05-13T01:26:51.641Z,31.00
2023-05-13T01:29:20.535Z,31.00
2023-05-13T01:31:50.048Z,30.00
2023-05-13T01:34:19.541Z,31.00
2023-05-13T01:36:47.731Z,32.50
2023-05-13T01:39:18.114Z,31.00
2023-05-13T01:41:46.328Z,32.00
2023-05-13T01:44:14.294Z,35.00
2023-05-13T01:46:45.590Z,34.00
2023-05-13T01:49:13.866Z,32.00
2023-05-13T01:51:41.857Z,31.00
2023-05-13T01:54:09.846Z,30.50
2023-05-13T01:56:39.857Z,33.00
2023-05-13T01:59:09.666Z,32.00
2023-05-13T02:01:40.607Z,35.00
2023-05-13T02:04:08.790Z,30.00
2023-05-13T02:06:36.689Z,36.00
2023-05-13T02:09:04.745Z,34.50
2023-05-13T02:11:34.746Z,32.00
2023-05-13T02:14:02.722Z,33.00
2023-05-13T02:16:31.170Z,35.00
2023-05-13T02:18:59.150Z,31.50
2023-05-13T02:21:30.192Z,32.00
2023-05-13T02:23:58.136Z,36.00
2023-05-13T02:26:26.431Z,35.00
2023-05-13T02:28:54.312Z,34.50
2023-05-13T02:31:22.603Z,38.00
2023-05-13T02:33:50.860Z,36.00
2023-05-13T02:36:18.973Z,34.00
2023-05-13T02:38:47.223Z,36.00
2023-05-13T02:41:15.641Z,36.00
2023-05-13T02:43:43.750Z,34.00
2023-05-13T02:46:11.659Z,32.67
2023-05-13T02:48:40.006Z,33.00
2023-05-13T02:51:09.629Z,36.00
2023-05-13T02:53:38.314Z,35.50
2023-05-13T02:56:06.517Z,35.50
2023-05-13T02:58:36.688Z,35.00
2023-05-13T03:01:04.658Z,39.00
2023-05-13T03:03:32.690Z,35.00
2023-05-13T03:06:00.922Z,29.00
2023-05-13T03:08:28.954Z,35.00
2023-05-13T03:10:58.754Z,34.50
2023-05-13T03:13:26.548Z,34.00
2023-05-13T03:15:54.583Z,37.33
2023-05-13T03:18:22.726Z,34.00
2023-05-13T03:20:50.717Z,37.00
2023-05-13T03:23:19.641Z,34.00
2023-05-13T03:25:47.974Z,36.50
2023-05-13T03:30:44.708Z,35.00
2023-05-13T03:33:18.631Z,41.00
2023-05-13T03:35:49.068Z,38.50
2023-05-13T03:38:17.574Z,37.00
2023-05-13T03:40:47.630Z,36.00
2023-05-13T03:43:15.777Z,34.50
2023-05-13T03:45:48.454Z,37.50
2023-05-13T03:48:18.760Z,35.00
2023-05-13T03:50:46.760Z,36.00
2023-05-13T03:53:16.269Z,44.00
2023-05-13T03:55:46.029Z,38.00
2023-05-13T03:58:15.575Z,38.00
2023-05-13T04:00:46.679Z,40.00
2023-05-13T04:03:18.954Z,37.00
2023-05-13T04:05:47.165Z,35.00
2023-05-13T04:08:15.252Z,35.00
2023-05-13T04:10:44.310Z,33.00
2023-05-13T04:13:12.249Z,34.00
2023-05-13T04:15:40.283Z,33.00
2023-05-13T04:18:08.338Z,35.00
2023-05-13T04:20:42.860Z,33.50
2023-05-13T04:23:10.776Z,34.00
2023-05-13T04:25:38.688Z,35.00
2023-05-13T04:28:07.324Z,34.00
2023-05-13T04:30:42.740Z,32.50
2023-05-13T04:33:10.704Z,34.67
2023-05-13T04:35:40.605Z,36.50
2023-05-13T04:38:09.399Z,31.50
2023-05-13T04:40:37.294Z,34.00
2023-05-13T04:43:12.344Z,34.00
2023-05-13T04:45:53.540Z,34.00
2023-05-13T04:48:22.355Z,37.50
2023-05-13T04:50:51.158Z,35.00
2023-05-13T04:53:20.057Z,38.00
2023-05-13T04:55:49.456Z,34.00
2023-05-13T05:00:45.905Z,34.00
2023-05-13T05:03:14.487Z,36.50
2023-05-13T05:05:42.482Z,30.00
2023-05-13T05:08:10.929Z,34.00
2023-05-13T05:10:39.059Z,34.00
2023-05-13T05:13:09.554Z,35.00
2023-05-13T05:15:37.424Z,34.00
2023-05-13T05:18:07.323Z,34.00
2023-05-13T05:20:38.161Z,35.00
2023-05-13T05:23:10.652Z,36.00
2023-05-13T05:25:39.492Z,33.00
2023-05-13T05:30:41.498Z,34.00
2023-05-13T05:33:22.920Z,35.50
2023-05-13T05:35:52.234Z,32.00
2023-05-13T05:38:24.188Z,35.00
2023-05-13T05:40:52.693Z,32.67
2023-05-13T05:43:20.830Z,30.50
2023-05-13T05:48:19.378Z,29.00
2023-05-13T05:50:49.107Z,35.50
2023-05-13T05:53:22.495Z,20.00
2023-05-13T05:55:52.375Z,21.00
2023-05-13T05:58:21.777Z,24.50
2023-05-13T06:00:49.817Z,25.00
2023-05-13T06:03:21.079Z,21.00
2023-05-13T06:05:49.286Z,18.00
2023-05-13T06:08:17.456Z,22.00
2023-05-13T06:10:46.457Z,24.00
2023-05-13T06:13:14.729Z,22.50
2023-05-13T06:15:43.309Z,19.00
2023-05-13T06:18:12.815Z,20.00
2023-05-13T06:20:41.264Z,22.00
2023-05-13T06:23:09.980Z,19.00
2023-05-13T06:25:38.628Z,20.00
2023-05-13T06:30:38.160Z,23.00
2023-05-13T06:33:06.301Z,22.00
2023-05-13T06:35:34.324Z,18.75
2023-05-13T06:38:05.127Z,15.00
2023-05-13T06:40:33.937Z,18.00
2023-05-13T06:43:02.661Z,17.00
2023-05-13T06:45:32.752Z,20.00
2023-05-13T06:48:00.972Z,17.67
2023-05-13T06:50:29.301Z,16.00
2023-05-13T06:52:58.722Z,14.00
2023-05-13T06:57:55.133Z,18.00
2023-05-13T07:00:24.056Z,17.00
2023-05-13T07:02:52.272Z,19.00
2023-05-13T07:05:20.364Z,17.00
2023-05-13T07:07:48.430Z,17.00
2023-05-13T07:10:16.439Z,19.00
2023-05-13T07:12:44.537Z,17.00
2023-05-13T07:15:12.571Z,16.00
2023-05-13T07:17:40.865Z,13.00
2023-05-13T07:20:10.075Z,13.00
2023-05-13T07:22:38.012Z,15.50
2023-05-13T07:25:06.904Z,15.00
2023-05-13T07:27:34.759Z,16.50
2023-05-13T07:30:02.691Z,14.00
2023-05-13T07:32:32.036Z,14.00
2023-05-13T07:35:00.055Z,18.00
2023-05-13T07:37:28.172Z,15.00
2023-05-13T07:39:56.108Z,16.00
2023-05-13T07:42:25.972Z,11.00
2023-05-13T07:44:54.063Z,16.00
2023-05-13T07:47:22.101Z,8.50
2023-05-13T07:49:50.495Z,13.00
2023-05-13T07:52:18.582Z,13.00
2023-05-13T07:54:46.729Z,13.50
2023-05-13T07:57:15.220Z,12.00
2023-05-13T08:02:12.974Z,12.00
2023-05-13T08:04:41.114Z,10.50
2023-05-13T08:07:10.358Z,10.00
2023-05-13T08:09:38.489Z,11.00
2023-05-13T08:12:07.294Z,8.00
2023-05-13T08:14:36.306Z,10.00
2023-05-13T08:19:33.209Z,11.00
2023-05-13T08:22:01.148Z,12.00
2023-05-13T08:24:29.536Z,8.00
2023-05-13T08:26:57.479Z,11.00
2023-05-13T08:29:25.754Z,8.00
2023-05-13T08:31:53.854Z,8.50
2023-05-13T08:34:21.905Z,5.00
2023-05-13T08:36:49.876Z,6.00
2023-05-13T08:39:18.050Z,8.00
2023-05-13T08:41:46.013Z,6.00
2023-05-13T08:46:42.416Z,6.00
2023-05-13T08:49:10.327Z,6.00
2023-05-13T08:51:38.428Z,7.00
2023-05-13T08:54:06.887Z,6.67
2023-05-13T08:56:35.781Z,7.00
2023-05-13T09:01:32.123Z,10.00
2023-05-13T09:04:02.566Z,7.00
2023-05-13T09:06:30.362Z,5.00
2023-05-13T09:08:58.350Z,7.00
2023-05-13T09:11:26.424Z,5.00
2023-05-13T09:14:02.775Z,7.00
2023-05-13T09:16:30.866Z,5.50
2023-05-13T09:19:01.518Z,5.00
2023-05-13T09:21:31.740Z,5.00
2023-05-13T09:24:11.160Z,5.00
2023-05-13T09:26:40.981Z,9.00
2023-05-13T09:29:22.874Z,8.33
2023-05-13T09:31:53.034Z,8.00
2023-05-13T09:34:27.022Z,7.00
2023-05-13T09:37:07.891Z,9.00
2023-05-13T09:39:41.496Z,8.00
2023-05-13T09:42:19.407Z,7.00
2023-05-13T09:44:47.877Z,7.00
2023-05-13T09:47:16.224Z,8.00
2023-05-13T09:49:45.302Z,6.50
2023-05-13T09:52:16.481Z,6.00
2023-05-13T09:54:44.719Z,7.00
2023-05-13T09:57:13.039Z,9.00
2023-05-13T09:59:41.425Z,6.50
2023-05-13T10:02:10.263Z,10.00
2023-05-13T10:04:38.204Z,9.00
2023-05-13T10:07:06.340Z,9.00
2023-05-13T10:09:36.424Z,6.00
2023-05-13T10:12:06.464Z,7.00
2023-05-13T10:14:36.805Z,6.00
2023-05-13T10:17:05.576Z,9.00
2023-05-13T10:19:33.581Z,7.00
2023-05-13T10:22:02.035Z,9.00
2023-05-13T10:24:29.924Z,7.00
2023-05-13T10:26:58.284Z,8.00
2023-05-13T10:29:26.241Z,6.50
2023-05-13T10:31:55.069Z,6.00
2023-05-13T10:34:23.215Z,7.00
2023-05-13T10:37:35.200Z,7.00
2023-05-13T10:40:29.972Z,7.00
2023-05-13T10:43:11.478Z,7.00
2023-05-13T10:45:39.482Z,5.50
2023-05-13T10:48:08.464Z,7.00
2023-05-13T10:50:38.458Z,7.00
2023-05-13T10:53:11.101Z,6.50
2023-05-13T10:55:45.282Z,6.00
2023-05-13T10:58:14.281Z,6.00
2023-05-13T11:00:44.728Z,5.00
2023-05-13T11:03:19.523Z,8.00
2023-05-13T11:05:59.351Z,6.00
2023-05-13T11:08:44.025Z,6.50
2023-05-13T11:11:18.873Z,5.67
2023-05-13T11:13:47.040Z,8.00
2023-05-13T11:16:15.994Z,6.00
2023-05-13T11:18:44.345Z,5.50
2023-05-13T11:21:12.460Z,6.00
2023-05-13T11:24:01.609Z,5.00
2023-05-13T11:29:09.602Z,6.00
2023-05-13T11:31:48.962Z,6.00
2023-05-13T11:34:18.051Z,5.00
2023-05-13T11:37:07.856Z,5.33
2023-05-13T11:39:36.327Z,6.00
2023-05-13T11:42:07.448Z,3.50
2023-05-13T11:44:35.438Z,9.00
2023-05-13T11:47:06.296Z,6.00
2023-05-13T11:49:47.221Z,6.00
2023-05-13T11:52:16.991Z,6.00
2023-05-13T11:54:55.085Z,7.00
2023-05-13T11:57:24.797Z,5.00
2023-05-13T12:00:00.774Z,5.00
2023-05-13T12:02:35.181Z,7.00
2023-05-13T12:05:05.426Z,6.00
2023-05-13T12:07:33.489Z,6.00
2023-05-13T12:10:02.724Z,7.00
2023-05-13T12:12:31.650Z,6.00
2023-05-13T12:17:30.670Z,7.00
2023-05-13T12:20:05.908Z,8.00
2023-05-13T12:22:34.654Z,7.00
2023-05-13T12:25:41.688Z,6.00
2023-05-13T12:28:12.113Z,6.00
2023-05-13T12:30:41.696Z,9.00
2023-05-13T12:33:16.748Z,6.00
2023-05-13T12:35:46.323Z,6.00
2023-05-13T12:38:18.494Z,7.00
2023-05-13T12:40:47.044Z,7.00
2023-05-13T12:43:16.697Z,8.00
2023-05-13T12:45:46.669Z,6.00
2023-05-13T12:48:14.762Z,5.00
2023-05-13T12:50:42.941Z,5.50
2023-05-13T12:53:11.006Z,5.00
2023-05-13T12:55:40.242Z,9.00
2023-05-13T12:58:11.313Z,7.00
2023-05-13T13:00:39.452Z,5.00
2023-05-13T13:03:08.184Z,11.00
2023-05-13T13:05:36.768Z,8.00
2023-05-13T13:08:08.107Z,10.00
2023-05-13T13:10:36.128Z,9.00
2023-05-13T13:13:04.073Z,8.00
2023-05-13T13:15:31.901Z,7.00
2023-05-13T13:17:59.847Z,7.00
2023-05-13T13:20:28.092Z,9.00
2023-05-13T13:22:56.106Z,8.00
2023-05-13T13:25:24.259Z,10.00
2023-05-13T13:27:52.252Z,7.00
2023-05-13T13:30:20.251Z,7.00
2023-05-13T13:32:48.233Z,8.00
2023-05-13T13:35:16.308Z,6.00
2023-05-13T13:37:44.222Z,9.00
2023-05-13T13:40:13.061Z,7.00
2023-05-13T13:42:44.654Z,8.00
2023-05-13T13:45:13.963Z,9.00
2023-05-13T13:47:42.155Z,6.00
2023-05-13T13:50:11.241Z,6.50
2023-05-13T13:52:39.280Z,6.00
2023-05-13T13:55:08.103Z,10.00
2023-05-13T13:57:36.012Z,9.00
2023-05-13T14:00:05.470Z,15.50
2023-05-13T14:02:34.051Z,14.50
2023-05-13T14:05:02.137Z,14.00
2023-05-13T14:07:30.259Z,14.50
2023-05-13T14:10:00.947Z,13.00
2023-05-13T14:12:29.457Z,14.00
2023-05-13T14:14:57.483Z,13.00
2023-05-13T14:17:25.538Z,13.00
2023-05-13T14:19:55.706Z,13.50
2023-05-13T14:22:24.170Z,15.00
2023-05-13T14:24:52.531Z,15.00
2023-05-13T14:27:21.931Z,14.00
2023-05-13T14:29:50.147Z,15.00
2023-05-13T14:32:18.525Z,15.00
2023-05-13T14:34:46.630Z,14.00
2023-05-13T14:37:15.562Z,15.00
2023-05-13T14:39:43.558Z,12.50
2023-05-13T14:42:11.824Z,13.00
2023-05-13T14:47:10.501Z,14.00
2023-05-13T14:49:38.686Z,13.00
2023-05-13T14:52:06.640Z,14.00
2023-05-13T14:54:35.911Z,14.00
2023-05-13T14:57:05.374Z,14.00
2023-05-13T14:59:33.973Z,12.67
2023-05-13T15:02:02.674Z,16.00
2023-05-13T15:04:30.858Z,13.00
2023-05-13T15:06:59.338Z,14.50
2023-05-13T15:09:27.473Z,13.00
2023-05-13T15:11:55.381Z,13.00
2023-05-13T15:14:25.963Z,13.00
2023-05-13T15:16:54.242Z,14.00
2023-05-13T15:19:22.316Z,14.50
2023-05-13T15:21:51.023Z,15.00
2023-05-13T15:24:19.012Z,14.00
2023-05-13T15:26:49.404Z,16.00
2023-05-13T15:29:17.776Z,13.00
2023-05-13T15:31:45.745Z,15.00
2023-05-13T15:34:13.919Z,15.00
2023-05-13T15:36:41.785Z,12.33
2023-05-13T15:39:11.135Z,13.00
2023-05-13T15:41:39.361Z,17.00
2023-05-13T15:44:07.431Z,16.50
2023-05-13T15:46:35.853Z,16.50
2023-05-13T15:49:04.093Z,14.00
2023-05-13T15:51:32.033Z,16.00
2023-05-13T15:56:30.918Z,17.50
2023-05-13T15:58:58.720Z,16.00
2023-05-13T16:01:26.802Z,18.50
2023-05-13T16:03:55.039Z,16.00
2023-05-13T16:06:23.224Z,18.50
2023-05-13T16:11:19.182Z,33.00
2023-05-13T16:13:47.353Z,22.00
2023-05-13T16:16:15.313Z,16.00
2023-05-13T16:18:43.430Z,20.00
2023-05-13T16:21:11.286Z,16.50
2023-05-13T16:23:39.238Z,17.00
2023-05-13T16:26:07.527Z,15.00
2023-05-13T16:28:35.782Z,13.00
2023-05-13T16:31:04.009Z,16.00
2023-05-13T16:33:33.406Z,20.50
2023-05-13T16:36:01.449Z,13.00
2023-05-13T16:38:30.519Z,15.00
2023-05-13T16:40:58.429Z,16.00
2023-05-13T16:43:26.535Z,18.00
2023-05-13T16:45:54.438Z,17.00
2023-05-13T16:48:22.498Z,22.50
2023-05-13T16:50:52.096Z,16.50
2023-05-13T16:53:22.417Z,19.00
2023-05-13T16:55:50.396Z,17.00
2023-05-13T16:58:18.349Z,16.00
2023-05-13T17:03:14.231Z,16.00
2023-05-13T17:05:42.462Z,24.00
2023-05-13T17:10:38.257Z,26.00
2023-05-13T17:13:06.313Z,20.00
2023-05-13T17:15:34.219Z,21.00
2023-05-13T17:20:30.333Z,22.00
2023-05-13T17:22:58.413Z,37.00
2023-05-13T17:25:26.569Z,32.00
2023-05-13T17:27:54.392Z,33.00
2023-05-13T17:30:23.063Z,31.00
2023-05-13T17:32:51.188Z,29.00
2023-05-13T17:35:19.107Z,28.00
2023-05-13T17:37:47.079Z,24.50
2023-05-13T17:40:15.109Z,29.00
2023-05-13T17:42:42.923Z,28.67
2023-05-13T17:45:11.145Z,31.00
2023-05-13T17:47:39.216Z,27.00
2023-05-13T17:50:08.328Z,28.50
2023-05-13T17:52:36.169Z,27.00
2023-05-13T17:55:05.566Z,30.00
2023-05-13T17:57:33.505Z,55.50
2023-05-13T18:00:04.862Z,51.00
2023-05-13T18:02:33.593Z,54.00
2023-05-13T18:05:02.201Z,71.00
2023-05-13T18:07:30.617Z,34.00
2023-05-13T18:09:58.677Z,26.00
2023-05-13T18:12:26.632Z,31.00
2023-05-13T18:14:54.592Z,34.00
2023-05-13T18:17:22.725Z,34.00
2023-05-13T18:19:51.868Z,33.00
2023-05-13T18:22:19.843Z,29.00
2023-05-13T18:24:47.907Z,29.00
2023-05-13T18:27:16.138Z,33.00
2023-05-13T18:32:12.044Z,33.00
2023-05-13T18:34:39.862Z,39.00
2023-05-13T18:37:07.763Z,44.50
2023-05-13T18:39:36.092Z,41.00
2023-05-13T18:42:04.506Z,34.00
2023-05-13T18:44:32.633Z,35.00
2023-05-13T18:47:00.466Z,38.00
2023-05-13T18:49:28.418Z,47.00
2023-05-13T18:51:56.699Z,35.33
2023-05-13T18:54:27.866Z,24.00
2023-05-13T18:56:56.330Z,28.00
2023-05-13T18:59:24.384Z,35.00
2023-05-13T19:01:52.583Z,41.00
2023-05-13T19:04:20.719Z,45.00
2023-05-13T19:06:49.005Z,42.00
2023-05-13T19:11:44.855Z,32.00
2023-05-13T19:14:12.754Z,29.00
2023-05-13T19:16:40.852Z,41.00
2023-05-13T19:19:08.994Z,44.50
2023-05-13T19:21:37.002Z,46.00
2023-05-13T19:24:05.196Z,42.00
2023-05-13T19:26:33.255Z,32.00
2023-05-13T19:31:30.368Z,26.00
2023-05-13T19:33:58.598Z,24.00
2023-05-13T19:36:27.124Z,33.00
2023-05-13T19:38:55.374Z,33.00
2023-05-13T19:41:23.335Z,36.00
2023-05-13T19:43:51.269Z,35.00
2023-05-13T19:46:19.386Z,35.00
2023-05-13T19:48:48.354Z,34.50
2023-05-13T19:51:16.531Z,31.00
2023-05-13T19:53:44.494Z,31.00
2023-05-13T19:56:12.585Z,36.00
2023-05-13T19:58:41.356Z,40.00
2023-05-13T20:01:12.009Z,33.50
2023-05-13T20:03:40.712Z,35.50
2023-05-13T20:06:08.850Z,28.00
2023-05-13T20:08:38.043Z,37.00
2023-05-13T20:13:33.734Z,44.00
2023-05-13T20:16:01.808Z,47.00
2023-05-13T20:18:30.049Z,47.00
2023-05-13T20:20:58.196Z,42.00
2023-05-13T20:23:26.163Z,34.00
2023-05-13T20:25:59.766Z,34.00
2023-05-13T20:28:28.772Z,31.00
2023-05-13T20:30:56.684Z,33.00
2023-05-13T20:33:24.866Z,36.00
2023-05-13T20:35:53.070Z,31.00
2023-05-13T20:38:21.401Z,32.00
2023-05-13T20:40:49.288Z,31.00
2023-05-13T20:43:17.142Z,35.00
2023-05-13T20:45:45.000Z,33.00
2023-05-13T20:48:13.759Z,33.00
2023-05-13T20:50:42.009Z,32.00
2023-05-13T20:53:09.984Z,29.00
2023-05-13T20:58:05.698Z,30.00
2023-05-13T21:00:33.743Z,27.50
2023-05-13T21:03:01.885Z,30.00
2023-05-13T21:05:29.777Z,27.00
2023-05-13T21:07:57.722Z,27.00
2023-05-13T21:10:26.082Z,28.00
2023-05-13T21:12:54.437Z,27.00
2023-05-13T21:15:22.414Z,30.00
2023-05-13T21:17:50.538Z,34.50
2023-05-13T21:20:18.980Z,32.00
2023-05-13T21:22:46.984Z,30.50
2023-05-13T21:25:15.075Z,34.00
2023-05-13T21:27:42.889Z,27.00
2023-05-13T21:30:12.534Z,29.00
2023-05-13T21:32:40.509Z,29.50
2023-05-13T21:35:08.826Z,27.00
2023-05-13T21:37:36.781Z,31.50
2023-05-13T21:40:05.976Z,39.50
2023-05-13T21:42:34.055Z,46.00
2023-05-13T21:45:02.408Z,58.00
2023-05-13T21:47:30.634Z,43.00
2023-05-13T21:49:58.676Z,32.00
2023-05-13T21:52:26.585Z,32.00
2023-05-13T21:54:54.915Z,31.00
2023-05-13T21:57:23.049Z,26.00
2023-05-13T21:59:51.070Z,28.00
2023-05-13T22:02:19.101Z,31.00
2023-05-13T22:04:47.368Z,27.50
2023-05-13T22:07:15.280Z,29.00
2023-05-13T22:09:43.453Z,29.00
2023-05-13T22:12:11.557Z,33.00
2023-05-13T22:14:39.900Z,34.50
2023-05-13T22:17:10.234Z,25.50
2023-05-13T22:19:38.806Z,33.00
2023-05-13T22:22:06.989Z,28.00
2023-05-13T22:24:34.812Z,32.00
2023-05-13T22:27:02.664Z,26.00
2023-05-13T22:29:31.506Z,27.00
2023-05-13T22:31:59.770Z,27.00
2023-05-13T22:34:28.045Z,28.00
2023-05-13T22:36:55.984Z,26.00
2023-05-13T22:39:26.242Z,28.00
2023-05-13T22:41:56.772Z,32.00
2023-05-13T22:44:24.848Z,30.00
2023-05-13T22:46:54.288Z,24.00
2023-05-13T22:49:22.519Z,28.50
2023-05-13T22:51:50.452Z,25.00
2023-05-13T22:54:18.465Z,27.00
2023-05-13T22:56:46.386Z,25.00
2023-05-13T22:59:14.365Z,25.00
2023-05-13T23:01:42.483Z,27.00
2023-05-13T23:04:10.793Z,23.00
2023-05-13T23:06:38.818Z,28.50
2023-05-13T23:09:07.618Z,27.00
2023-05-13T23:14:06.509Z,25.50
2023-05-13T23:16:35.070Z,26.00
2023-05-13T23:19:03.798Z,23.00
2023-05-13T23:21:32.434Z,29.50
2023-05-13T23:24:00.330Z,24.00
2023-05-13T23:26:28.500Z,27.00
2023-05-13T23:28:56.668Z,29.50
2023-05-13T23:31:24.847Z,29.00
2023-05-13T23:33:53.200Z,31.00
2023-05-13T23:36:21.075Z,25.50
2023-05-13T23:38:50.797Z,29.00
2023-05-13T23:41:18.935Z,25.00
2023-05-13T23:43:47.145Z,30.00
2023-05-13T23:46:15.054Z,25.50
2023-05-13T23:48:43.091Z,27.00
2023-05-13T23:51:11.062Z,29.00
2023-05-13T23:53:39.424Z,26.50
2023-05-13T23:56:08.104Z,29.00
2023-05-13T23:58:35.992Z,28.00
